sensor_id;sensor_type;location;lat;lon;timestamp;P1;durP1;ratioP1;P2;durP2;ratioP2
36797;SDS011;22748;8.426;99.512;2022-07-24T00:01:46;9.65;;;6.85;;
36797;SDS011;22748;8.426;99.512;2022-07-24T00:04:19;8.13;;;6.07;;
36797;SDS011;22748;8.426;99.512;2022-07-24T00:06:51;6.72;;;5.93;;
36797;SDS011;22748;8.426;99.512;2022-07-24T00:09:21;9.90;;;7.13;;
36797;SDS011;22748;8.426;99.512;2022-07-24T00:11:51;10.45;;;7.63;;
36797;SDS011;22748;8.426;99.512;2022-07-24T00:14:24;12.55;;;8.80;;
36797;SDS011;22748;8.426;99.512;2022-07-24T00:16:55;14.00;;;9.15;;
36797;SDS011;22748;8.426;99.512;2022-07-24T00:19:28;12.40;;;7.72;;
36797;SDS011;22748;8.426;99.512;2022-07-24T00:22:00;13.07;;;7.97;;
36797;SDS011;22748;8.426;99.512;2022-07-24T00:26:59;10.55;;;7.10;;
36797;SDS011;22748;8.426;99.512;2022-07-24T00:29:30;12.38;;;7.22;;
36797;SDS011;22748;8.426;99.512;2022-07-24T00:32:02;10.60;;;6.95;;
36797;SDS011;22748;8.426;99.512;2022-07-24T00:34:34;9.85;;;6.75;;
36797;SDS011;22748;8.426;99.512;2022-07-24T00:37:05;8.02;;;7.20;;
36797;SDS011;22748;8.426;99.512;2022-07-24T00:39:36;6.90;;;6.30;;
36797;SDS011;22748;8.426;99.512;2022-07-24T00:44:37;8.77;;;6.07;;
36797;SDS011;22748;8.426;99.512;2022-07-24T00:47:08;6.88;;;6.22;;
36797;SDS011;22748;8.426;99.512;2022-07-24T00:52:11;11.60;;;5.95;;
36797;SDS011;22748;8.426;99.512;2022-07-24T00:54:42;6.30;;;5.70;;
36797;SDS011;22748;8.426;99.512;2022-07-24T00:57:14;7.10;;;5.75;;
36797;SDS011;22748;8.426;99.512;2022-07-24T00:59:45;11.02;;;6.03;;
36797;SDS011;22748;8.426;99.512;2022-07-24T01:04:49;7.75;;;5.88;;
36797;SDS011;22748;8.426;99.512;2022-07-24T01:07:19;10.82;;;5.70;;
36797;SDS011;22748;8.426;99.512;2022-07-24T01:09:53;7.30;;;5.63;;
36797;SDS011;22748;8.426;99.512;2022-07-24T01:12:25;6.93;;;5.05;;
36797;SDS011;22748;8.426;99.512;2022-07-24T01:14:56;6.93;;;5.55;;
36797;SDS011;22748;8.426;99.512;2022-07-24T01:17:30;8.93;;;4.95;;
36797;SDS011;22748;8.426;99.512;2022-07-24T01:20:08;7.47;;;4.50;;
36797;SDS011;22748;8.426;99.512;2022-07-24T01:22:41;7.95;;;6.55;;
36797;SDS011;22748;8.426;99.512;2022-07-24T01:25:13;7.10;;;4.63;;
36797;SDS011;22748;8.426;99.512;2022-07-24T01:27:43;5.65;;;4.97;;
36797;SDS011;22748;8.426;99.512;2022-07-24T01:30:15;6.03;;;4.93;;
36797;SDS011;22748;8.426;99.512;2022-07-24T01:32:47;5.72;;;4.13;;
36797;SDS011;22748;8.426;99.512;2022-07-24T01:35:18;6.47;;;4.75;;
36797;SDS011;22748;8.426;99.512;2022-07-24T01:37:52;9.38;;;4.28;;
36797;SDS011;22748;8.426;99.512;2022-07-24T01:40:25;5.63;;;4.38;;
36797;SDS011;22748;8.426;99.512;2022-07-24T01:42:57;6.45;;;4.25;;
36797;SDS011;22748;8.426;99.512;2022-07-24T01:47:57;6.72;;;4.40;;
36797;SDS011;22748;8.426;99.512;2022-07-24T01:50:29;7.70;;;3.95;;
36797;SDS011;22748;8.426;99.512;2022-07-24T01:53:02;6.97;;;3.97;;
36797;SDS011;22748;8.426;99.512;2022-07-24T01:55:31;8.73;;;4.55;;
36797;SDS011;22748;8.426;99.512;2022-07-24T01:58:01;9.63;;;5.03;;
36797;SDS011;22748;8.426;99.512;2022-07-24T02:00:32;9.52;;;4.90;;
36797;SDS011;22748;8.426;99.512;2022-07-24T02:03:04;9.25;;;4.22;;
36797;SDS011;22748;8.426;99.512;2022-07-24T02:05:35;6.35;;;3.75;;
36797;SDS011;22748;8.426;99.512;2022-07-24T02:08:11;9.43;;;4.03;;
36797;SDS011;22748;8.426;99.512;2022-07-24T02:10:41;5.18;;;3.75;;
36797;SDS011;22748;8.426;99.512;2022-07-24T02:13:12;6.38;;;3.30;;
36797;SDS011;22748;8.426;99.512;2022-07-24T02:15:45;5.32;;;3.25;;
36797;SDS011;22748;8.426;99.512;2022-07-24T02:18:16;13.30;;;3.95;;
36797;SDS011;22748;8.426;99.512;2022-07-24T02:20:47;6.20;;;3.25;;
36797;SDS011;22748;8.426;99.512;2022-07-24T02:23:20;7.53;;;3.45;;
36797;SDS011;22748;8.426;99.512;2022-07-24T02:25:51;8.23;;;2.95;;
36797;SDS011;22748;8.426;99.512;2022-07-24T02:30:50;9.05;;;3.30;;
36797;SDS011;22748;8.426;99.512;2022-07-24T02:33:21;11.50;;;3.42;;
36797;SDS011;22748;8.426;99.512;2022-07-24T02:35:52;5.88;;;2.58;;
36797;SDS011;22748;8.426;99.512;2022-07-24T02:38:24;6.40;;;2.63;;
36797;SDS011;22748;8.426;99.512;2022-07-24T02:40:57;4.82;;;2.50;;
36797;SDS011;22748;8.426;99.512;2022-07-24T02:43:27;9.38;;;3.03;;
36797;SDS011;22748;8.426;99.512;2022-07-24T02:45:58;13.93;;;3.15;;
36797;SDS011;22748;8.426;99.512;2022-07-24T02:48:29;6.63;;;2.30;;
36797;SDS011;22748;8.426;99.512;2022-07-24T02:51:00;5.97;;;2.60;;
36797;SDS011;22748;8.426;99.512;2022-07-24T02:53:33;7.28;;;2.58;;
36797;SDS011;22748;8.426;99.512;2022-07-24T02:56:04;6.45;;;2.53;;
36797;SDS011;22748;8.426;99.512;2022-07-24T02:58:36;5.18;;;2.38;;
36797;SDS011;22748;8.426;99.512;2022-07-24T03:01:05;6.57;;;2.80;;
36797;SDS011;22748;8.426;99.512;2022-07-24T03:03:37;6.03;;;2.90;;
36797;SDS011;22748;8.426;99.512;2022-07-24T03:08:39;11.20;;;4.88;;
36797;SDS011;22748;8.426;99.512;2022-07-24T03:11:10;9.85;;;4.72;;
36797;SDS011;22748;8.426;99.512;2022-07-24T03:13:41;9.38;;;5.85;;
36797;SDS011;22748;8.426;99.512;2022-07-24T03:16:12;8.10;;;5.45;;
36797;SDS011;22748;8.426;99.512;2022-07-24T03:18:43;6.60;;;4.38;;
36797;SDS011;22748;8.426;99.512;2022-07-24T03:21:15;7.45;;;4.10;;
36797;SDS011;22748;8.426;99.512;2022-07-24T03:23:51;10.07;;;4.18;;
36797;SDS011;22748;8.426;99.512;2022-07-24T03:26:21;6.70;;;4.10;;
36797;SDS011;22748;8.426;99.512;2022-07-24T03:28:51;8.73;;;4.55;;
36797;SDS011;22748;8.426;99.512;2022-07-24T03:31:23;14.30;;;6.43;;
36797;SDS011;22748;8.426;99.512;2022-07-24T03:36:24;5.90;;;3.65;;
36797;SDS011;22748;8.426;99.512;2022-07-24T03:38:55;6.90;;;3.92;;
36797;SDS011;22748;8.426;99.512;2022-07-24T03:41:27;11.75;;;7.35;;
36797;SDS011;22748;8.426;99.512;2022-07-24T03:43:57;11.85;;;5.65;;
36797;SDS011;22748;8.426;99.512;2022-07-24T03:46:29;6.30;;;3.55;;
36797;SDS011;22748;8.426;99.512;2022-07-24T03:49:00;6.93;;;3.58;;
36797;SDS011;22748;8.426;99.512;2022-07-24T03:51:30;7.97;;;3.42;;
36797;SDS011;22748;8.426;99.512;2022-07-24T03:54:04;6.72;;;2.70;;
36797;SDS011;22748;8.426;99.512;2022-07-24T03:56:35;4.38;;;2.38;;
36797;SDS011;22748;8.426;99.512;2022-07-24T04:01:37;3.72;;;2.10;;
36797;SDS011;22748;8.426;99.512;2022-07-24T04:20:45;5.35;;;3.17;;
36797;SDS011;22748;8.426;99.512;2022-07-24T04:23:17;5.90;;;2.63;;
36797;SDS011;22748;8.426;99.512;2022-07-24T04:25:50;5.68;;;2.50;;
36797;SDS011;22748;8.426;99.512;2022-07-24T04:28:20;9.65;;;2.58;;
36797;SDS011;22748;8.426;99.512;2022-07-24T04:30:51;4.47;;;2.27;;
36797;SDS011;22748;8.426;99.512;2022-07-24T04:33:22;4.47;;;2.28;;
36797;SDS011;22748;8.426;99.512;2022-07-24T04:35:55;7.45;;;3.13;;
36797;SDS011;22748;8.426;99.512;2022-07-24T04:38:26;5.05;;;2.40;;
36797;SDS011;22748;8.426;99.512;2022-07-24T04:40:59;5.53;;;2.80;;
36797;SDS011;22748;8.426;99.512;2022-07-24T04:43:30;6.40;;;2.92;;
36797;SDS011;22748;8.426;99.512;2022-07-24T04:46:01;5.28;;;2.60;;
36797;SDS011;22748;8.426;99.512;2022-07-24T04:48:33;6.57;;;3.00;;
36797;SDS011;22748;8.426;99.512;2022-07-24T04:51:06;6.13;;;2.83;;
36797;SDS011;22748;8.426;99.512;2022-07-24T04:53:36;5.50;;;3.03;;
36797;SDS011;22748;8.426;99.512;2022-07-24T04:56:13;6.10;;;2.97;;
36797;SDS011;22748;8.426;99.512;2022-07-24T04:58:44;6.28;;;2.42;;
36797;SDS011;22748;8.426;99.512;2022-07-24T05:01:16;6.75;;;2.80;;
36797;SDS011;22748;8.426;99.512;2022-07-24T05:03:46;4.65;;;2.28;;
36797;SDS011;22748;8.426;99.512;2022-07-24T05:06:20;10.40;;;3.00;;
36797;SDS011;22748;8.426;99.512;2022-07-24T05:08:51;11.10;;;6.90;;
36797;SDS011;22748;8.426;99.512;2022-07-24T05:11:23;8.05;;;4.53;;
36797;SDS011;22748;8.426;99.512;2022-07-24T05:13:55;5.95;;;3.20;;
36797;SDS011;22748;8.426;99.512;2022-07-24T05:16:25;6.18;;;3.25;;
36797;SDS011;22748;8.426;99.512;2022-07-24T05:18:55;5.65;;;2.72;;
36797;SDS011;22748;8.426;99.512;2022-07-24T05:21:28;6.03;;;2.73;;
36797;SDS011;22748;8.426;99.512;2022-07-24T05:24:04;8.18;;;5.30;;
36797;SDS011;22748;8.426;99.512;2022-07-24T05:26:35;7.88;;;4.25;;
36797;SDS011;22748;8.426;99.512;2022-07-24T05:29:05;3.50;;;2.92;;
36797;SDS011;22748;8.426;99.512;2022-07-24T05:31:35;4.03;;;3.50;;
36797;SDS011;22748;8.426;99.512;2022-07-24T05:34:06;4.15;;;3.35;;
36797;SDS011;22748;8.426;99.512;2022-07-24T05:36:38;4.82;;;3.17;;
36797;SDS011;22748;8.426;99.512;2022-07-24T05:39:10;4.70;;;3.38;;
36797;SDS011;22748;8.426;99.512;2022-07-24T05:41:39;8.02;;;3.60;;
36797;SDS011;22748;8.426;99.512;2022-07-24T05:44:11;5.70;;;3.13;;
36797;SDS011;22748;8.426;99.512;2022-07-24T05:49:12;7.38;;;4.20;;
36797;SDS011;22748;8.426;99.512;2022-07-24T05:51:45;4.68;;;3.60;;
36797;SDS011;22748;8.426;99.512;2022-07-24T05:54:16;8.65;;;4.80;;
36797;SDS011;22748;8.426;99.512;2022-07-24T05:56:47;5.32;;;3.40;;
36797;SDS011;22748;8.426;99.512;2022-07-24T05:59:18;5.75;;;3.47;;
36797;SDS011;22748;8.426;99.512;2022-07-24T06:04:18;8.95;;;3.00;;
36797;SDS011;22748;8.426;99.512;2022-07-24T06:06:53;4.70;;;2.75;;
36797;SDS011;22748;8.426;99.512;2022-07-24T06:09:27;4.53;;;2.75;;
36797;SDS011;22748;8.426;99.512;2022-07-24T06:11:58;2.90;;;2.67;;
36797;SDS011;22748;8.426;99.512;2022-07-24T06:16:58;6.13;;;3.53;;
36797;SDS011;22748;8.426;99.512;2022-07-24T06:19:31;3.75;;;3.28;;
36797;SDS011;22748;8.426;99.512;2022-07-24T06:22:03;4.80;;;3.25;;
36797;SDS011;22748;8.426;99.512;2022-07-24T06:24:33;5.80;;;2.70;;
36797;SDS011;22748;8.426;99.512;2022-07-24T06:27:11;4.03;;;3.00;;
36797;SDS011;22748;8.426;99.512;2022-07-24T06:29:57;3.78;;;2.72;;
36797;SDS011;22748;8.426;99.512;2022-07-24T06:32:27;4.35;;;2.30;;
36797;SDS011;22748;8.426;99.512;2022-07-24T06:34:57;4.40;;;2.60;;
36797;SDS011;22748;8.426;99.512;2022-07-24T06:37:29;4.63;;;2.75;;
36797;SDS011;22748;8.426;99.512;2022-07-24T06:40:02;6.18;;;2.78;;
36797;SDS011;22748;8.426;99.512;2022-07-24T06:42:33;4.20;;;3.30;;
36797;SDS011;22748;8.426;99.512;2022-07-24T06:47:33;5.43;;;3.10;;
36797;SDS011;22748;8.426;99.512;2022-07-24T06:50:07;4.72;;;3.00;;
36797;SDS011;22748;8.426;99.512;2022-07-24T06:52:41;5.13;;;3.15;;
36797;SDS011;22748;8.426;99.512;2022-07-24T06:55:13;5.35;;;2.90;;
36797;SDS011;22748;8.426;99.512;2022-07-24T06:57:44;5.30;;;3.20;;
36797;SDS011;22748;8.426;99.512;2022-07-24T07:00:15;5.85;;;3.20;;
36797;SDS011;22748;8.426;99.512;2022-07-24T07:02:47;5.43;;;2.35;;
36797;SDS011;22748;8.426;99.512;2022-07-24T07:05:18;4.88;;;2.60;;
36797;SDS011;22748;8.426;99.512;2022-07-24T07:07:51;5.38;;;2.60;;
36797;SDS011;22748;8.426;99.512;2022-07-24T07:10:22;6.25;;;4.07;;
36797;SDS011;22748;8.426;99.512;2022-07-24T07:12:52;4.22;;;3.00;;
36797;SDS011;22748;8.426;99.512;2022-07-24T07:15:22;3.70;;;3.30;;
36797;SDS011;22748;8.426;99.512;2022-07-24T07:17:53;5.95;;;3.13;;
36797;SDS011;22748;8.426;99.512;2022-07-24T07:20:23;6.55;;;3.08;;
36797;SDS011;22748;8.426;99.512;2022-07-24T07:22:55;7.20;;;2.83;;
36797;SDS011;22748;8.426;99.512;2022-07-24T07:25:25;9.43;;;3.85;;
36797;SDS011;22748;8.426;99.512;2022-07-24T07:27:55;6.20;;;3.28;;
36797;SDS011;22748;8.426;99.512;2022-07-24T07:30:25;11.20;;;3.30;;
36797;SDS011;22748;8.426;99.512;2022-07-24T07:35:26;9.18;;;3.92;;
36797;SDS011;22748;8.426;99.512;2022-07-24T07:37:58;8.68;;;6.45;;
36797;SDS011;22748;8.426;99.512;2022-07-24T07:40:31;10.15;;;6.20;;
36797;SDS011;22748;8.426;99.512;2022-07-24T07:43:01;9.88;;;6.57;;
36797;SDS011;22748;8.426;99.512;2022-07-24T07:45:31;13.27;;;6.20;;
36797;SDS011;22748;8.426;99.512;2022-07-24T07:48:02;12.20;;;4.85;;
36797;SDS011;22748;8.426;99.512;2022-07-24T07:50:32;7.25;;;3.83;;
36797;SDS011;22748;8.426;99.512;2022-07-24T07:53:05;8.63;;;3.70;;
36797;SDS011;22748;8.426;99.512;2022-07-24T07:55:38;6.55;;;3.85;;
36797;SDS011;22748;8.426;99.512;2022-07-24T07:58:09;6.78;;;3.78;;
36797;SDS011;22748;8.426;99.512;2022-07-24T08:00:38;8.18;;;3.88;;
36797;SDS011;22748;8.426;99.512;2022-07-24T08:03:08;5.03;;;3.55;;
36797;SDS011;22748;8.426;99.512;2022-07-24T08:08:13;4.97;;;3.10;;
36797;SDS011;22748;8.426;99.512;2022-07-24T08:10:45;4.28;;;2.88;;
36797;SDS011;22748;8.426;99.512;2022-07-24T08:13:16;3.95;;;2.33;;
36797;SDS011;22748;8.426;99.512;2022-07-24T08:15:46;6.53;;;3.80;;
36797;SDS011;22748;8.426;99.512;2022-07-24T08:18:17;3.92;;;2.20;;
36797;SDS011;22748;8.426;99.512;2022-07-24T08:20:48;7.53;;;3.20;;
36797;SDS011;22748;8.426;99.512;2022-07-24T08:25:49;9.25;;;2.75;;
36797;SDS011;22748;8.426;99.512;2022-07-24T08:28:20;5.30;;;2.30;;
36797;SDS011;22748;8.426;99.512;2022-07-24T08:30:51;6.22;;;2.17;;
36797;SDS011;22748;8.426;99.512;2022-07-24T08:33:22;7.25;;;2.88;;
36797;SDS011;22748;8.426;99.512;2022-07-24T08:35:53;4.32;;;2.10;;
36797;SDS011;22748;8.426;99.512;2022-07-24T08:38:24;5.53;;;2.00;;
36797;SDS011;22748;8.426;99.512;2022-07-24T08:40:55;3.95;;;1.73;;
36797;SDS011;22748;8.426;99.512;2022-07-24T08:43:27;3.13;;;1.98;;
36797;SDS011;22748;8.426;99.512;2022-07-24T08:45:57;6.00;;;2.80;;
36797;SDS011;22748;8.426;99.512;2022-07-24T08:48:32;4.18;;;1.70;;
36797;SDS011;22748;8.426;99.512;2022-07-24T08:51:03;8.05;;;4.25;;
36797;SDS011;22748;8.426;99.512;2022-07-24T08:53:36;7.13;;;2.80;;
36797;SDS011;22748;8.426;99.512;2022-07-24T08:56:07;8.55;;;2.42;;
36797;SDS011;22748;8.426;99.512;2022-07-24T08:58:46;14.18;;;5.72;;
36797;SDS011;22748;8.426;99.512;2022-07-24T09:01:16;8.65;;;2.22;;
36797;SDS011;22748;8.426;99.512;2022-07-24T09:03:48;6.93;;;1.98;;
36797;SDS011;22748;8.426;99.512;2022-07-24T09:06:18;6.72;;;2.38;;
36797;SDS011;22748;8.426;99.512;2022-07-24T09:08:58;8.03;;;2.50;;
36797;SDS011;22748;8.426;99.512;2022-07-24T09:11:30;2.80;;;1.50;;
36797;SDS011;22748;8.426;99.512;2022-07-24T09:14:05;5.35;;;2.35;;
36797;SDS011;22748;8.426;99.512;2022-07-24T09:16:49;3.33;;;2.00;;
36797;SDS011;22748;8.426;99.512;2022-07-24T09:19:20;6.22;;;2.63;;
36797;SDS011;22748;8.426;99.512;2022-07-24T09:21:51;4.95;;;3.00;;
36797;SDS011;22748;8.426;99.512;2022-07-24T09:24:24;7.15;;;3.13;;
36797;SDS011;22748;8.426;99.512;2022-07-24T09:26:55;7.13;;;3.67;;
36797;SDS011;22748;8.426;99.512;2022-07-24T09:29:26;7.10;;;3.10;;
36797;SDS011;22748;8.426;99.512;2022-07-24T09:31:57;10.60;;;3.78;;
36797;SDS011;22748;8.426;99.512;2022-07-24T09:34:29;5.47;;;3.42;;
36797;SDS011;22748;8.426;99.512;2022-07-24T09:37:08;5.78;;;3.00;;
36797;SDS011;22748;8.426;99.512;2022-07-24T09:39:42;4.88;;;3.28;;
36797;SDS011;22748;8.426;99.512;2022-07-24T09:42:15;7.78;;;2.78;;
36797;SDS011;22748;8.426;99.512;2022-07-24T09:44:47;8.18;;;3.33;;
36797;SDS011;22748;8.426;99.512;2022-07-24T09:47:28;6.75;;;3.88;;
36797;SDS011;22748;8.426;99.512;2022-07-24T09:50:15;13.70;;;5.65;;
36797;SDS011;22748;8.426;99.512;2022-07-24T09:52:53;10.40;;;8.88;;
36797;SDS011;22748;8.426;99.512;2022-07-24T09:55:26;10.10;;;5.13;;
36797;SDS011;22748;8.426;99.512;2022-07-24T09:57:58;8.18;;;3.90;;
36797;SDS011;22748;8.426;99.512;2022-07-24T10:02:58;8.00;;;4.25;;
36797;SDS011;22748;8.426;99.512;2022-07-24T10:05:34;6.85;;;4.13;;
36797;SDS011;22748;8.426;99.512;2022-07-24T10:08:08;5.57;;;4.10;;
36797;SDS011;22748;8.426;99.512;2022-07-24T10:10:48;9.63;;;7.60;;
36797;SDS011;22748;8.426;99.512;2022-07-24T10:13:18;10.38;;;6.97;;
36797;SDS011;22748;8.426;99.512;2022-07-24T10:15:52;9.65;;;6.13;;
36797;SDS011;22748;8.426;99.512;2022-07-24T10:18:34;11.50;;;6.55;;
36797;SDS011;22748;8.426;99.512;2022-07-24T10:21:17;9.82;;;6.13;;
36797;SDS011;22748;8.426;99.512;2022-07-24T10:26:43;10.55;;;6.32;;
36797;SDS011;22748;8.426;99.512;2022-07-24T10:29:17;9.57;;;5.47;;
36797;SDS011;22748;8.426;99.512;2022-07-24T10:31:50;6.90;;;4.68;;
36797;SDS011;22748;8.426;99.512;2022-07-24T10:34:26;6.35;;;4.78;;
36797;SDS011;22748;8.426;99.512;2022-07-24T10:37:21;8.75;;;5.07;;
36797;SDS011;22748;8.426;99.512;2022-07-24T10:40:02;12.73;;;5.03;;
36797;SDS011;22748;8.426;99.512;2022-07-24T10:45:40;24.08;;;5.50;;
36797;SDS011;22748;8.426;99.512;2022-07-24T10:51:07;13.80;;;4.85;;
36797;SDS011;22748;8.426;99.512;2022-07-24T10:53:44;14.93;;;5.53;;
36797;SDS011;22748;8.426;99.512;2022-07-24T10:56:22;9.73;;;5.15;;
36797;SDS011;22748;8.426;99.512;2022-07-24T10:59:03;11.05;;;5.57;;
36797;SDS011;22748;8.426;99.512;2022-07-24T11:01:39;7.72;;;5.13;;
36797;SDS011;22748;8.426;99.512;2022-07-24T11:07:08;11.10;;;5.93;;
36797;SDS011;22748;8.426;99.512;2022-07-24T11:12:28;10.73;;;9.60;;
36797;SDS011;22748;8.426;99.512;2022-07-24T11:15:12;7.68;;;4.35;;
36797;SDS011;22748;8.426;99.512;2022-07-24T11:18:08;4.90;;;3.33;;
36797;SDS011;22748;8.426;99.512;2022-07-24T11:20:43;23.35;;;8.68;;
36797;SDS011;22748;8.426;99.512;2022-07-24T11:23:18;25.85;;;13.32;;
36797;SDS011;22748;8.426;99.512;2022-07-24T11:25:50;13.02;;;7.22;;
36797;SDS011;22748;8.426;99.512;2022-07-24T11:28:41;4.38;;;3.70;;
36797;SDS011;22748;8.426;99.512;2022-07-24T11:31:40;5.43;;;3.20;;
36797;SDS011;22748;8.426;99.512;2022-07-24T11:34:14;8.52;;;4.15;;
36797;SDS011;22748;8.426;99.512;2022-07-24T11:36:46;5.70;;;3.88;;
36797;SDS011;22748;8.426;99.512;2022-07-24T11:39:20;6.55;;;3.80;;
36797;SDS011;22748;8.426;99.512;2022-07-24T11:41:56;7.78;;;4.07;;
36797;SDS011;22748;8.426;99.512;2022-07-24T11:44:28;10.90;;;5.10;;
36797;SDS011;22748;8.426;99.512;2022-07-24T11:47:05;8.65;;;4.40;;
36797;SDS011;22748;8.426;99.512;2022-07-24T11:49:43;9.55;;;4.40;;
36797;SDS011;22748;8.426;99.512;2022-07-24T11:52:17;7.10;;;3.80;;
36797;SDS011;22748;8.426;99.512;2022-07-24T11:54:52;7.85;;;4.60;;
36797;SDS011;22748;8.426;99.512;2022-07-24T11:57:27;8.75;;;3.75;;
36797;SDS011;22748;8.426;99.512;2022-07-24T11:59:58;6.05;;;3.42;;
36797;SDS011;22748;8.426;99.512;2022-07-24T12:02:30;11.90;;;5.38;;
36797;SDS011;22748;8.426;99.512;2022-07-24T12:05:02;9.82;;;4.20;;
36797;SDS011;22748;8.426;99.512;2022-07-24T12:07:36;9.32;;;5.80;;
36797;SDS011;22748;8.426;99.512;2022-07-24T12:10:07;11.60;;;8.30;;
36797;SDS011;22748;8.426;99.512;2022-07-24T12:12:38;10.70;;;7.70;;
36797;SDS011;22748;8.426;99.512;2022-07-24T12:15:11;10.98;;;6.28;;
36797;SDS011;22748;8.426;99.512;2022-07-24T12:17:55;17.77;;;8.55;;
36797;SDS011;22748;8.426;99.512;2022-07-24T12:20:30;17.60;;;9.15;;
36797;SDS011;22748;8.426;99.512;2022-07-24T12:23:07;13.27;;;8.57;;
36797;SDS011;22748;8.426;99.512;2022-07-24T12:25:38;12.27;;;7.57;;
36797;SDS011;22748;8.426;99.512;2022-07-24T12:28:09;13.73;;;7.07;;
36797;SDS011;22748;8.426;99.512;2022-07-24T12:30:42;10.40;;;5.90;;
36797;SDS011;22748;8.426;99.512;2022-07-24T12:33:21;9.77;;;6.40;;
36797;SDS011;22748;8.426;99.512;2022-07-24T12:35:59;9.82;;;5.75;;
36797;SDS011;22748;8.426;99.512;2022-07-24T12:38:36;10.00;;;5.90;;
36797;SDS011;22748;8.426;99.512;2022-07-24T12:41:09;7.05;;;4.80;;
36797;SDS011;22748;8.426;99.512;2022-07-24T12:43:48;7.18;;;4.57;;
36797;SDS011;22748;8.426;99.512;2022-07-24T12:46:22;6.18;;;4.18;;
36797;SDS011;22748;8.426;99.512;2022-07-24T12:48:59;5.75;;;3.80;;
36797;SDS011;22748;8.426;99.512;2022-07-24T12:54:19;6.28;;;3.60;;
36797;SDS011;22748;8.426;99.512;2022-07-24T12:56:53;6.60;;;3.53;;
36797;SDS011;22748;8.426;99.512;2022-07-24T12:59:26;6.03;;;4.30;;
36797;SDS011;22748;8.426;99.512;2022-07-24T13:01:57;8.95;;;4.28;;
36797;SDS011;22748;8.426;99.512;2022-07-24T13:04:40;8.02;;;5.82;;
36797;SDS011;22748;8.426;99.512;2022-07-24T13:07:16;16.40;;;7.53;;
36797;SDS011;22748;8.426;99.512;2022-07-24T13:09:48;13.60;;;8.45;;
36797;SDS011;22748;8.426;99.512;2022-07-24T13:12:19;10.38;;;6.45;;
36797;SDS011;22748;8.426;99.512;2022-07-24T13:14:50;11.57;;;6.22;;
36797;SDS011;22748;8.426;99.512;2022-07-24T13:17:22;7.57;;;5.47;;
36797;SDS011;22748;8.426;99.512;2022-07-24T13:19:53;8.50;;;5.03;;
36797;SDS011;22748;8.426;99.512;2022-07-24T13:22:25;11.50;;;4.73;;
36797;SDS011;22748;8.426;99.512;2022-07-24T13:24:56;8.38;;;4.20;;
36797;SDS011;22748;8.426;99.512;2022-07-24T13:27:29;9.90;;;4.47;;
36797;SDS011;22748;8.426;99.512;2022-07-24T13:29:59;9.85;;;4.22;;
36797;SDS011;22748;8.426;99.512;2022-07-24T13:32:30;7.35;;;4.20;;
36797;SDS011;22748;8.426;99.512;2022-07-24T13:35:00;12.27;;;5.47;;
36797;SDS011;22748;8.426;99.512;2022-07-24T13:37:32;12.25;;;5.40;;
36797;SDS011;22748;8.426;99.512;2022-07-24T13:40:03;9.05;;;4.68;;
36797;SDS011;22748;8.426;99.512;2022-07-24T13:42:38;8.18;;;4.65;;
36797;SDS011;22748;8.426;99.512;2022-07-24T13:45:08;9.75;;;5.65;;
36797;SDS011;22748;8.426;99.512;2022-07-24T13:47:39;13.00;;;6.60;;
36797;SDS011;22748;8.426;99.512;2022-07-24T13:50:09;14.93;;;6.37;;
36797;SDS011;22748;8.426;99.512;2022-07-24T13:52:42;11.23;;;6.63;;
36797;SDS011;22748;8.426;99.512;2022-07-24T13:55:15;12.40;;;6.80;;
36797;SDS011;22748;8.426;99.512;2022-07-24T13:57:46;9.13;;;6.00;;
36797;SDS011;22748;8.426;99.512;2022-07-24T14:00:16;9.53;;;6.23;;
36797;SDS011;22748;8.426;99.512;2022-07-24T14:02:51;10.35;;;5.95;;
36797;SDS011;22748;8.426;99.512;2022-07-24T14:05:22;11.75;;;6.68;;
36797;SDS011;22748;8.426;99.512;2022-07-24T14:07:56;10.07;;;6.47;;
36797;SDS011;22748;8.426;99.512;2022-07-24T14:10:32;11.32;;;6.20;;
36797;SDS011;22748;8.426;99.512;2022-07-24T14:13:05;9.75;;;6.07;;
36797;SDS011;22748;8.426;99.512;2022-07-24T14:15:37;9.70;;;6.05;;
36797;SDS011;22748;8.426;99.512;2022-07-24T14:20:39;8.75;;;5.85;;
36797;SDS011;22748;8.426;99.512;2022-07-24T14:23:11;7.45;;;5.70;;
36797;SDS011;22748;8.426;99.512;2022-07-24T14:25:43;9.98;;;5.60;;
36797;SDS011;22748;8.426;99.512;2022-07-24T14:28:15;11.43;;;6.35;;
36797;SDS011;22748;8.426;99.512;2022-07-24T14:30:46;10.15;;;6.18;;
36797;SDS011;22748;8.426;99.512;2022-07-24T14:33:17;10.52;;;5.45;;
36797;SDS011;22748;8.426;99.512;2022-07-24T14:35:51;12.35;;;5.43;;
36797;SDS011;22748;8.426;99.512;2022-07-24T14:38:22;11.38;;;6.32;;
36797;SDS011;22748;8.426;99.512;2022-07-24T14:40:52;11.70;;;5.82;;
36797;SDS011;22748;8.426;99.512;2022-07-24T14:43:24;12.27;;;6.10;;
36797;SDS011;22748;8.426;99.512;2022-07-24T14:45:54;9.40;;;5.13;;
36797;SDS011;22748;8.426;99.512;2022-07-24T14:48:24;11.90;;;5.57;;
36797;SDS011;22748;8.426;99.512;2022-07-24T14:50:54;10.13;;;6.90;;
36797;SDS011;22748;8.426;99.512;2022-07-24T14:53:26;10.80;;;7.10;;
36797;SDS011;22748;8.426;99.512;2022-07-24T14:55:57;12.77;;;5.85;;
36797;SDS011;22748;8.426;99.512;2022-07-24T14:58:28;14.75;;;5.55;;
36797;SDS011;22748;8.426;99.512;2022-07-24T15:00:59;9.20;;;4.93;;
36797;SDS011;22748;8.426;99.512;2022-07-24T15:03:30;7.18;;;4.53;;
36797;SDS011;22748;8.426;99.512;2022-07-24T15:06:01;6.05;;;4.38;;
36797;SDS011;22748;8.426;99.512;2022-07-24T15:08:32;8.35;;;4.50;;
36797;SDS011;22748;8.426;99.512;2022-07-24T15:11:03;5.43;;;4.00;;
36797;SDS011;22748;8.426;99.512;2022-07-24T15:13:34;7.03;;;4.70;;
36797;SDS011;22748;8.426;99.512;2022-07-24T15:16:07;6.55;;;4.93;;
36797;SDS011;22748;8.426;99.512;2022-07-24T15:18:39;6.30;;;4.30;;
36797;SDS011;22748;8.426;99.512;2022-07-24T15:21:10;5.70;;;4.72;;
36797;SDS011;22748;8.426;99.512;2022-07-24T15:23:42;7.20;;;5.13;;
36797;SDS011;22748;8.426;99.512;2022-07-24T15:26:12;8.30;;;4.80;;
36797;SDS011;22748;8.426;99.512;2022-07-24T15:28:43;9.73;;;6.00;;
36797;SDS011;22748;8.426;99.512;2022-07-24T15:31:14;6.63;;;5.70;;
36797;SDS011;22748;8.426;99.512;2022-07-24T15:33:45;9.30;;;6.13;;
36797;SDS011;22748;8.426;99.512;2022-07-24T15:38:48;7.93;;;5.50;;
36797;SDS011;22748;8.426;99.512;2022-07-24T15:41:19;6.40;;;5.40;;
36797;SDS011;22748;8.426;99.512;2022-07-24T15:43:50;9.15;;;5.63;;
36797;SDS011;22748;8.426;99.512;2022-07-24T15:46:20;9.73;;;5.55;;
36797;SDS011;22748;8.426;99.512;2022-07-24T15:48:51;5.60;;;4.78;;
36797;SDS011;22748;8.426;99.512;2022-07-24T15:51:25;15.10;;;5.82;;
36797;SDS011;22748;8.426;99.512;2022-07-24T15:53:59;11.50;;;5.22;;
36797;SDS011;22748;8.426;99.512;2022-07-24T15:59:43;7.95;;;4.95;;
36797;SDS011;22748;8.426;99.512;2022-07-24T16:02:14;6.60;;;4.35;;
36797;SDS011;22748;8.426;99.512;2022-07-24T16:04:45;9.23;;;4.72;;
36797;SDS011;22748;8.426;99.512;2022-07-24T16:07:16;6.47;;;4.47;;
36797;SDS011;22748;8.426;99.512;2022-07-24T16:09:50;6.55;;;4.80;;
36797;SDS011;22748;8.426;99.512;2022-07-24T16:12:21;8.90;;;5.05;;
36797;SDS011;22748;8.426;99.512;2022-07-24T16:17:23;7.10;;;5.32;;
36797;SDS011;22748;8.426;99.512;2022-07-24T16:19:55;12.63;;;6.22;;
36797;SDS011;22748;8.426;99.512;2022-07-24T16:22:26;10.40;;;5.88;;
36797;SDS011;22748;8.426;99.512;2022-07-24T16:24:59;7.30;;;5.88;;
36797;SDS011;22748;8.426;99.512;2022-07-24T16:27:30;8.30;;;6.00;;
36797;SDS011;22748;8.426;99.512;2022-07-24T16:30:02;8.90;;;6.20;;
36797;SDS011;22748;8.426;99.512;2022-07-24T16:32:34;11.23;;;6.15;;
36797;SDS011;22748;8.426;99.512;2022-07-24T16:35:05;10.10;;;6.72;;
36797;SDS011;22748;8.426;99.512;2022-07-24T16:37:37;8.82;;;6.85;;
36797;SDS011;22748;8.426;99.512;2022-07-24T16:40:10;8.50;;;6.07;;
36797;SDS011;22748;8.426;99.512;2022-07-24T16:42:40;9.63;;;6.22;;
36797;SDS011;22748;8.426;99.512;2022-07-24T16:45:11;11.80;;;6.10;;